Disclaimer

Please do not use the information listed here in-flight or in-navigation, as they are not provided to us by the airports but are provided by volunteers, so they might be outdated.

Search


Regions


Airport information page

Radio informations:
Tower (TWR) - 128.9 MHz
Approach (APP) - 124.55 MHz

Airport informations:
Latitude: 61° 51' 21.78" N
Longitude: 024° 47' 11.76" E
Elevation: 479 feet - 146 meters
Operating hours: N/A
Operating agency: Military
Timezone: UTC+2(+3DT) - Last Sunday in March to last Sunday in October
Fuel: 100/130 MIL Spec, low lead, aviation gasoline (BLUE)

Runway information:
08/26 - 8533 x 197 feet< - >2601 x 60 meters

Recent METARs:
EFHA 211820Z AUTO 26006KT CAVOK M05/M06 Q1027
EFHA 211850Z AUTO 27005KT 9999 FEW012 M05/M06 Q1027
EFHA 211920Z AUTO 26008KT 9999 BKN010 M04/M04 Q1026

Airport on the map: